createdAt,value
2018-12-22T00:00:12.587Z,100381.38
2018-12-22T00:00:43.691Z,100383.58
2018-12-22T00:01:14.847Z,100377.15
2018-12-22T00:01:45.962Z,100376.23
2018-12-22T00:03:06.853Z,100374.50
2018-12-22T00:03:37.959Z,100376.67
2018-12-22T00:04:09.064Z,100374.93
2018-12-22T00:04:40.178Z,100375.39
2018-12-22T00:05:11.353Z,100377.15
2018-12-22T00:05:42.465Z,100371.14
2018-12-22T00:06:13.589Z,100374.14
2018-12-22T00:06:44.732Z,100374.88
2018-12-22T00:07:15.840Z,100315.06
2018-12-22T00:07:46.953Z,100370.01
2018-12-22T00:08:18.064Z,100367.79
2018-12-22T00:08:49.213Z,100375.48
2018-12-22T00:09:20.322Z,100370.34
2018-12-22T00:09:51.683Z,100372.91
2018-12-22T00:10:22.832Z,100372.05
2018-12-22T00:10:53.948Z,100374.97
2018-12-22T00:11:25.055Z,100369.36
2018-12-22T00:11:56.166Z,100367.22
2018-12-22T00:12:27.265Z,100368.12
2018-12-22T00:12:58.381Z,100367.26
2018-12-22T00:13:29.547Z,100362.17
2018-12-22T00:14:00.673Z,100368.60
2018-12-22T00:14:31.780Z,100368.55
2018-12-22T00:15:02.895Z,100366.42
2018-12-22T00:15:34.012Z,100367.31
2018-12-22T00:16:05.130Z,100368.25
2018-12-22T00:16:36.258Z,100365.24
2018-12-22T00:17:07.380Z,100369.92
2018-12-22T00:17:38.505Z,100374.22
2018-12-22T00:18:09.616Z,100360.48
2018-12-22T00:18:40.787Z,100367.36
2018-12-22T00:19:11.913Z,100367.34
2018-12-22T00:19:43.014Z,100371.56
2018-12-22T00:20:14.134Z,100365.97
2018-12-22T00:20:45.263Z,100377.14
2018-12-22T00:21:16.377Z,100367.72
2018-12-22T00:21:47.490Z,100369.45
2018-12-22T00:22:18.639Z,100363.50
2018-12-22T00:22:49.773Z,100366.22
2018-12-22T00:23:20.917Z,100361.64
2018-12-22T00:23:52.048Z,100362.59
2018-12-22T00:24:23.156Z,100359.64
2018-12-22T00:24:54.260Z,100359.64
2018-12-22T00:25:25.382Z,100362.95
2018-12-22T00:25:56.537Z,100364.17
2018-12-22T00:26:27.747Z,100361.12
2018-12-22T00:26:58.880Z,100364.08
2018-12-22T00:27:30.010Z,100362.77
2018-12-22T00:28:01.212Z,100359.77
2018-12-22T00:28:32.323Z,100358.08
2018-12-22T00:29:03.448Z,100364.91
2018-12-22T00:29:34.578Z,100358.38
2018-12-22T00:30:05.712Z,100358.84
2018-12-22T00:30:36.836Z,100353.69
2018-12-22T00:31:07.963Z,100361.43
2018-12-22T00:31:39.083Z,100353.31
2018-12-22T00:32:10.196Z,100352.48
2018-12-22T00:32:41.312Z,100354.25
2018-12-22T00:33:12.473Z,100351.23
2018-12-22T00:33:43.618Z,100352.14
2018-12-22T00:34:14.734Z,100351.27
2018-12-22T00:34:45.889Z,100349.58
2018-12-22T00:35:17.002Z,100353.83
2018-12-22T00:35:48.105Z,100343.98
2018-12-22T00:36:19.249Z,100346.98
2018-12-22T00:36:50.355Z,100344.81
2018-12-22T00:37:21.475Z,100349.48
2018-12-22T00:37:52.601Z,100354.59
2018-12-22T00:38:23.705Z,100355.81
2018-12-22T00:38:55.456Z,100351.08
2018-12-22T00:39:26.637Z,100351.06
2018-12-22T00:39:57.889Z,100352.74
2018-12-22T00:40:29.007Z,100347.58
2018-12-22T00:41:00.128Z,100348.43
2018-12-22T00:41:31.278Z,100349.67
2018-12-22T00:42:02.387Z,100352.63
2018-12-22T00:42:33.524Z,100347.48
2018-12-22T00:43:04.647Z,100344.87
2018-12-22T00:43:35.756Z,100343.13
2018-12-22T00:44:06.869Z,100347.31
2018-12-22T00:44:37.977Z,100351.98
2018-12-22T00:45:09.138Z,100351.92
2018-12-22T00:45:40.249Z,100355.71
2018-12-22T00:46:11.370Z,100346.23
2018-12-22T00:46:42.480Z,100349.62
2018-12-22T00:47:13.598Z,100346.98
2018-12-22T00:47:44.695Z,100350.39
2018-12-22T00:48:15.818Z,100351.15
2018-12-22T00:48:46.924Z,100348.25
2018-12-22T00:49:18.031Z,100347.05
2018-12-22T00:49:49.564Z,100346.66
2018-12-22T00:50:20.704Z,100342.86
2018-12-22T00:50:51.861Z,100341.13
2018-12-22T00:51:23.093Z,100348.05
2018-12-22T00:51:54.203Z,100340.80
2018-12-22T00:52:25.315Z,100333.79
2018-12-22T00:52:56.429Z,100332.86
2018-12-22T00:53:27.540Z,100337.17
2018-12-22T00:53:58.653Z,100335.66
2018-12-22T00:54:29.764Z,100334.72
2018-12-22T00:55:00.882Z,100335.00
2018-12-22T00:55:31.991Z,100339.44
2018-12-22T00:56:03.137Z,100335.92
2018-12-22T00:56:34.251Z,100337.66
2018-12-22T00:57:05.362Z,100340.73
2018-12-22T00:57:36.472Z,100340.25
2018-12-22T00:58:07.656Z,100340.91
2018-12-22T00:58:38.773Z,100339.48
2018-12-22T00:59:09.880Z,100347.55
2018-12-22T00:59:40.991Z,100344.08
2018-12-22T01:00:13.776Z,100342.30
2018-12-22T01:00:45.048Z,100350.01
2018-12-22T01:01:16.200Z,100344.87
2018-12-22T01:01:47.327Z,100347.03
2018-12-22T01:02:18.474Z,100345.80
2018-12-22T01:02:49.616Z,100341.13
2018-12-22T01:03:20.736Z,100340.72
2018-12-22T01:03:51.844Z,100345.91
2018-12-22T01:04:22.959Z,100340.34
2018-12-22T01:04:54.073Z,100341.25
2018-12-22T01:05:25.191Z,100337.77
2018-12-22T01:05:56.312Z,100341.63
2018-12-22T01:06:27.423Z,100338.68
2018-12-22T01:06:58.573Z,100342.94
2018-12-22T01:07:29.682Z,100339.91
2018-12-22T01:08:00.798Z,100341.17
2018-12-22T01:08:31.913Z,100345.47
2018-12-22T01:09:03.023Z,100334.30
2018-12-22T01:09:34.140Z,100336.39
2018-12-22T01:10:05.300Z,100334.70
2018-12-22T01:10:36.423Z,100332.94
2018-12-22T01:11:07.578Z,100338.02
2018-12-22T01:11:38.698Z,100334.51
2018-12-22T01:12:09.808Z,100331.89
2018-12-22T01:12:40.961Z,100335.30
2018-12-22T01:13:12.068Z,100341.27
2018-12-22T01:13:43.188Z,100338.24
2018-12-22T01:14:14.309Z,100342.05
2018-12-22T01:14:46.240Z,100342.43
2018-12-22T01:15:17.351Z,100338.95
2018-12-22T01:15:48.460Z,100342.78
2018-12-22T01:16:19.610Z,100335.95
2018-12-22T01:16:50.725Z,100341.95
2018-12-22T01:17:21.842Z,100341.52
2018-12-22T01:17:52.949Z,100335.09
2018-12-22T01:18:24.103Z,100333.41
2018-12-22T01:18:55.210Z,100341.14
2018-12-22T01:19:26.326Z,100339.38
2018-12-22T01:19:57.436Z,100341.17
2018-12-22T01:20:28.540Z,100345.00
2018-12-22T01:20:59.653Z,100342.80
2018-12-22T01:21:30.767Z,100343.22
2018-12-22T01:22:01.885Z,100344.60
2018-12-22T01:22:32.987Z,100340.44
2018-12-22T01:23:04.151Z,100342.17
2018-12-22T01:23:35.305Z,100345.58
2018-12-22T01:24:06.416Z,100349.80
2018-12-22T01:24:37.524Z,100351.50
2018-12-22T01:25:08.624Z,100345.93
2018-12-22T01:25:39.742Z,100346.28
2018-12-22T01:26:10.845Z,100350.49
2018-12-22T01:26:42.041Z,100350.59
2018-12-22T01:27:13.149Z,100347.65
2018-12-22T01:27:44.282Z,100347.22
2018-12-22T01:28:15.439Z,100352.25
2018-12-22T01:28:46.548Z,100347.57
2018-12-22T01:29:17.661Z,100352.61
2018-12-22T01:29:48.788Z,100346.61
2018-12-22T01:30:19.900Z,100347.07
2018-12-22T01:30:51.012Z,100350.97
2018-12-22T01:31:22.158Z,100348.06
2018-12-22T01:31:53.272Z,100348.48
2018-12-22T01:32:24.386Z,100349.05
2018-12-22T01:32:55.501Z,100347.44
2018-12-22T01:33:26.661Z,100346.67
2018-12-22T01:33:57.773Z,100351.45
2018-12-22T01:34:28.958Z,100351.91
2018-12-22T01:35:00.185Z,100348.08
2018-12-22T01:35:31.295Z,100347.67
2018-12-22T01:36:02.410Z,100345.94
2018-12-22T01:36:34.153Z,100352.74
2018-12-22T01:37:05.301Z,100347.11
2018-12-22T01:37:36.420Z,100346.27
2018-12-22T01:38:07.529Z,100342.44
2018-12-22T01:38:38.649Z,100339.06
2018-12-22T01:39:09.752Z,100337.77
2018-12-22T01:39:40.852Z,100338.20
2018-12-22T01:40:11.973Z,100339.51
2018-12-22T01:40:43.090Z,100339.53
2018-12-22T01:41:14.212Z,100338.72
2018-12-22T01:41:45.354Z,100337.89
2018-12-22T01:42:16.513Z,100338.27
2018-12-22T01:42:47.630Z,100340.34
2018-12-22T01:43:18.739Z,100336.94
2018-12-22T01:43:49.845Z,100344.67
2018-12-22T01:44:20.987Z,100339.09
2018-12-22T01:44:52.121Z,100345.52
2018-12-22T01:45:23.247Z,100344.23
2018-12-22T01:45:54.360Z,100339.09
2018-12-22T01:46:25.493Z,100339.16
2018-12-22T01:46:56.600Z,100342.20
2018-12-22T01:47:27.733Z,100337.52
2018-12-22T01:47:58.837Z,100334.07
2018-12-22T01:48:29.957Z,100330.67
2018-12-22T01:49:01.109Z,100331.95
2018-12-22T01:49:32.212Z,100328.05
2018-12-22T01:50:03.320Z,100324.95
2018-12-22T01:50:34.433Z,100318.48
2018-12-22T01:51:05.540Z,99891.02
2018-12-22T01:51:36.655Z,100321.05
2018-12-22T01:52:07.767Z,100325.27
2018-12-22T01:52:38.888Z,100321.32
2018-12-22T01:53:10.004Z,100326.01
2018-12-22T01:53:41.156Z,100321.30
2018-12-22T01:54:12.320Z,100320.87
2018-12-22T01:54:43.426Z,100322.09
2018-12-22T01:55:14.538Z,100327.69
2018-12-22T01:55:45.648Z,100323.39
2018-12-22T01:56:16.757Z,100323.39
2018-12-22T01:56:47.873Z,100322.55
2018-12-22T01:57:19.023Z,100320.78
2018-12-22T01:57:50.132Z,100319.90
2018-12-22T01:58:21.247Z,100316.52
2018-12-22T01:58:52.369Z,100316.52
2018-12-22T01:59:23.485Z,100314.40
2018-12-22T01:59:54.632Z,100311.85
2018-12-22T02:00:25.748Z,100316.59
2018-12-22T02:00:56.872Z,100312.73
2018-12-22T02:01:27.980Z,100309.64
2018-12-22T02:01:59.127Z,100310.50
2018-12-22T02:02:30.245Z,100304.48
2018-12-22T02:03:01.409Z,100298.07
2018-12-22T02:03:32.528Z,100305.73
2018-12-22T02:04:03.655Z,100298.88
2018-12-22T02:04:34.803Z,100299.36
2018-12-22T02:05:05.910Z,100298.07
2018-12-22T02:05:37.025Z,100293.41
2018-12-22T02:06:08.147Z,100297.23
2018-12-22T02:06:39.260Z,100298.55
2018-12-22T02:07:10.379Z,100290.83
2018-12-22T02:07:41.489Z,100288.22
2018-12-22T02:08:12.596Z,100292.53
2018-12-22T02:08:43.752Z,100281.80
2018-12-22T02:09:14.855Z,100285.66
2018-12-22T02:09:46.012Z,100288.66
2018-12-22T02:10:17.121Z,100283.94
2018-12-22T02:10:48.244Z,100280.53
2018-12-22T02:11:19.348Z,100281.84
2018-12-22T02:11:50.477Z,100287.41
2018-12-22T02:12:21.590Z,100281.81
2018-12-22T02:12:52.732Z,100280.53
2018-12-22T02:13:23.849Z,100285.70
2018-12-22T02:13:54.996Z,100280.04
2018-12-22T02:14:26.127Z,100281.30
2018-12-22T02:14:57.258Z,100282.52
2018-12-22T02:15:28.368Z,100279.55
2018-12-22T02:15:59.494Z,100273.12
2018-12-22T02:16:30.617Z,100276.97
2018-12-22T02:17:01.736Z,100276.52
2018-12-22T02:17:32.835Z,100274.33
2018-12-22T02:18:03.965Z,100268.73
2018-12-22T02:18:35.129Z,100269.19
2018-12-22T02:19:06.253Z,100266.62
2018-12-22T02:19:37.356Z,100259.80
2018-12-22T02:20:08.475Z,100263.26
2018-12-22T02:20:39.604Z,100265.00
2018-12-22T02:21:10.725Z,100261.97
2018-12-22T02:21:41.845Z,100260.29
2018-12-22T02:22:12.968Z,100260.27
2018-12-22T02:22:44.080Z,100257.23
2018-12-22T02:23:15.188Z,100259.81
2018-12-22T02:23:46.340Z,100261.55
2018-12-22T02:24:17.447Z,100261.10
2018-12-22T02:24:48.559Z,100258.91
2018-12-22T02:25:19.676Z,100265.41
2018-12-22T02:25:50.785Z,100256.41
2018-12-22T02:26:21.892Z,100260.80
2018-12-22T02:26:53.013Z,100263.45
2018-12-22T02:27:24.204Z,100259.23
2018-12-22T02:27:55.328Z,100255.77
2018-12-22T02:28:26.457Z,100257.06
2018-12-22T02:28:57.567Z,100250.18
2018-12-22T02:29:28.724Z,100248.00
2018-12-22T02:30:00.733Z,100253.43
2018-12-22T02:30:31.849Z,100254.20
2018-12-22T02:31:02.983Z,100247.73
2018-12-22T02:31:34.137Z,100248.53
2018-12-22T02:32:05.243Z,100247.55
2018-12-22T02:32:36.346Z,100251.38
2018-12-22T02:33:07.457Z,100243.97
2018-12-22T02:33:38.573Z,100240.91
2018-12-22T02:34:09.726Z,100235.77
2018-12-22T02:34:40.836Z,100241.70
2018-12-22T02:35:11.954Z,100236.94
2018-12-22T02:35:43.069Z,100238.17
2018-12-22T02:36:14.212Z,100239.36
2018-12-22T02:36:45.322Z,100236.77
2018-12-22T02:37:16.438Z,100237.98
2018-12-22T02:37:47.551Z,100236.34
2018-12-22T02:38:18.654Z,100236.81
2018-12-22T02:38:49.787Z,100237.72
2018-12-22T02:39:20.949Z,100235.63
2018-12-22T02:39:52.052Z,100235.17
2018-12-22T02:40:23.160Z,100239.17
2018-12-22T02:40:54.268Z,100238.84
2018-12-22T02:41:25.386Z,100241.48
2018-12-22T02:41:56.500Z,100240.23
2018-12-22T02:42:27.616Z,100241.64
2018-12-22T02:42:58.781Z,100240.81
2018-12-22T02:43:29.907Z,100242.56
2018-12-22T02:44:01.072Z,100240.87
2018-12-22T02:44:32.236Z,100238.26
2018-12-22T02:45:03.348Z,100246.85
2018-12-22T02:45:34.460Z,100236.14
2018-12-22T02:46:05.577Z,100236.58
2018-12-22T02:46:36.685Z,100227.56
2018-12-22T02:47:07.783Z,100234.88
2018-12-22T02:47:38.901Z,100228.98
2018-12-22T02:48:10.012Z,100230.30
2018-12-22T02:48:41.133Z,100235.06
2018-12-22T02:49:12.280Z,100235.97
2018-12-22T02:49:43.546Z,100234.68
2018-12-22T02:50:14.661Z,100237.72
2018-12-22T02:50:45.769Z,100233.89
2018-12-22T02:51:16.880Z,100239.48
2018-12-22T02:51:48.299Z,100233.27
2018-12-22T02:52:19.396Z,100236.92
2018-12-22T02:52:50.499Z,100237.93
2018-12-22T02:53:21.648Z,100233.25
2018-12-22T02:53:52.808Z,100234.17
2018-12-22T02:54:23.927Z,100235.01
2018-12-22T02:54:55.033Z,100235.02
2018-12-22T02:55:27.144Z,100240.62
2018-12-22T02:55:59.424Z,100241.92
2018-12-22T02:56:30.538Z,100236.67
2018-12-22T02:57:02.417Z,100241.80
2018-12-22T02:57:33.544Z,100240.87
2018-12-22T02:58:04.698Z,100243.35
2018-12-22T02:58:35.807Z,100243.73
2018-12-22T02:59:06.923Z,100238.10
2018-12-22T02:59:38.046Z,100243.25
2018-12-22T03:00:09.165Z,100244.97
2018-12-22T03:00:40.312Z,100238.45
2018-12-22T03:01:11.428Z,100242.27
2018-12-22T03:01:42.548Z,100246.65
2018-12-22T03:02:13.660Z,100244.15
2018-12-22T03:02:44.777Z,100243.73
2018-12-22T03:03:15.934Z,100242.90
2018-12-22T03:03:47.049Z,100244.23
2018-12-22T03:04:18.158Z,100241.69
2018-12-22T03:04:49.264Z,100241.67
2018-12-22T03:05:20.379Z,100236.89
2018-12-22T03:05:51.484Z,100239.41
2018-12-22T03:06:22.592Z,100237.23
2018-12-22T03:06:53.716Z,100238.92
2018-12-22T03:07:24.840Z,100238.88
2018-12-22T03:07:55.969Z,100241.41
2018-12-22T03:08:27.173Z,100238.72
2018-12-22T03:08:58.290Z,100240.87
2018-12-22T03:09:29.396Z,100237.42
2018-12-22T03:10:00.548Z,100242.55
2018-12-22T03:10:31.653Z,100237.77
2018-12-22T03:11:02.773Z,100239.03
2018-12-22T03:11:33.886Z,100236.45
2018-12-22T03:12:05.005Z,100240.71
2018-12-22T03:12:36.108Z,100240.71
2018-12-22T03:13:07.228Z,100238.13
2018-12-22T03:13:38.368Z,100236.91
2018-12-22T03:14:09.493Z,100235.28
2018-12-22T03:14:40.606Z,100237.94
2018-12-22T03:15:11.717Z,100231.06
2018-12-22T03:15:42.850Z,100232.30
2018-12-22T03:16:13.968Z,100230.06
2018-12-22T03:16:45.082Z,100235.64
2018-12-22T03:17:16.211Z,100236.05
2018-12-22T03:17:47.360Z,100230.91
2018-12-22T03:18:18.489Z,100229.59
2018-12-22T03:18:49.600Z,100235.62
2018-12-22T03:19:20.704Z,100237.78
2018-12-22T03:19:51.820Z,100234.03
2018-12-22T03:20:22.923Z,100232.92
2018-12-22T03:20:54.037Z,100231.30
2018-12-22T03:21:25.134Z,100231.33
2018-12-22T03:21:57.328Z,100226.70
2018-12-22T03:22:28.562Z,100231.43
2018-12-22T03:22:59.705Z,100227.63
2018-12-22T03:23:30.908Z,100231.03
2018-12-22T03:24:02.557Z,100233.17
2018-12-22T03:24:33.709Z,100238.70
2018-12-22T03:25:04.922Z,100233.97
2018-12-22T03:25:36.040Z,100236.09
2018-12-22T03:26:07.188Z,100237.37
2018-12-22T03:26:38.321Z,100234.80
2018-12-22T03:27:09.466Z,100245.09
2018-12-22T03:27:40.572Z,100239.41
2018-12-22T03:28:11.717Z,100242.33
2018-12-22T03:28:42.838Z,100237.55
2018-12-22T03:29:15.877Z,100240.42
2018-12-22T03:29:47.140Z,100236.05
2018-12-22T03:30:18.394Z,100233.89
2018-12-22T03:30:49.523Z,100235.19
2018-12-22T03:31:20.660Z,100227.50
2018-12-22T03:31:51.807Z,100230.54
2018-12-22T03:32:22.947Z,100227.50
2018-12-22T03:32:54.093Z,100232.15
2018-12-22T03:33:25.269Z,100234.68
2018-12-22T03:33:56.380Z,100233.69
2018-12-22T03:34:27.493Z,100243.11
2018-12-22T03:34:58.601Z,100236.23
2018-12-22T03:35:29.719Z,100240.19
2018-12-22T03:36:02.009Z,100240.66
2018-12-22T03:36:33.128Z,100238.54
2018-12-22T03:37:04.280Z,100234.27
2018-12-22T03:37:35.388Z,100238.67
2018-12-22T03:38:06.498Z,100236.93
2018-12-22T03:38:37.631Z,100241.19
2018-12-22T03:39:08.801Z,100242.81
2018-12-22T03:39:39.906Z,100242.77
2018-12-22T03:40:11.037Z,100241.38
2018-12-22T03:40:42.188Z,100247.42
2018-12-22T03:41:13.312Z,100238.90
2018-12-22T03:41:45.047Z,100242.77
2018-12-22T03:42:16.719Z,100245.72
2018-12-22T03:42:49.885Z,100240.07
2018-12-22T03:43:21.245Z,100243.85
2018-12-22T03:43:52.365Z,100235.74
2018-12-22T03:44:23.482Z,100235.69
2018-12-22T03:44:54.602Z,100238.31
2018-12-22T03:45:25.725Z,100236.61
2018-12-22T03:45:56.900Z,100237.88
2018-12-22T03:46:28.004Z,100238.67
2018-12-22T03:46:59.124Z,100237.33
2018-12-22T03:47:30.227Z,100234.34
2018-12-22T03:48:01.340Z,100236.44
2018-12-22T03:48:32.452Z,100233.89
2018-12-22T03:49:03.583Z,100237.33
2018-12-22T03:49:34.684Z,100233.48
2018-12-22T03:50:05.786Z,100231.32
2018-12-22T03:50:36.910Z,100233.44
2018-12-22T03:51:08.053Z,100233.81
2018-12-22T03:51:39.157Z,100239.41
2018-12-22T03:52:10.309Z,100239.88
2018-12-22T03:52:41.431Z,100233.48
2018-12-22T03:53:12.559Z,100240.77
2018-12-22T03:53:43.668Z,100239.41
2018-12-22T03:54:15.466Z,100239.36
2018-12-22T03:54:46.601Z,100235.45
2018-12-22T03:55:17.718Z,100241.41
2018-12-22T03:55:48.838Z,100238.01
2018-12-22T03:56:19.989Z,100237.63
2018-12-22T03:56:51.106Z,100237.65
2018-12-22T03:57:22.215Z,100228.67
2018-12-22T03:57:53.372Z,100228.30
2018-12-22T03:58:24.501Z,100230.48
2018-12-22T03:58:55.617Z,100230.97
2018-12-22T03:59:26.722Z,100228.87
2018-12-22T03:59:57.826Z,100226.67
2018-12-22T04:00:28.945Z,100227.13
2018-12-22T04:01:00.071Z,100227.13
2018-12-22T04:01:31.255Z,100227.58
2018-12-22T04:02:02.367Z,100222.03
2018-12-22T04:02:33.492Z,100219.91
2018-12-22T04:03:04.608Z,100216.51
2018-12-22T04:03:35.725Z,100219.97
2018-12-22T04:04:06.838Z,100217.86
2018-12-22T04:04:37.958Z,100216.58
2018-12-22T04:05:09.066Z,100217.00
2018-12-22T04:05:40.183Z,100213.59
2018-12-22T04:06:11.320Z,100205.05
2018-12-22T04:06:42.497Z,100211.93
2018-12-22T04:07:13.610Z,100220.92
2018-12-22T04:07:44.800Z,100212.33
2018-12-22T04:08:15.907Z,100213.67
2018-12-22T04:08:47.024Z,100212.77
2018-12-22T04:09:18.191Z,100208.00
2018-12-22T04:09:49.314Z,100211.38
2018-12-22T04:10:20.447Z,100207.50
2018-12-22T04:10:51.562Z,100204.04
2018-12-22T04:11:22.686Z,100202.72
2018-12-22T04:11:53.807Z,100197.13
2018-12-22T04:12:24.922Z,100198.39
2018-12-22T04:12:56.082Z,100203.09
2018-12-22T04:13:27.202Z,100195.38
2018-12-22T04:13:58.350Z,100200.05
2018-12-22T04:14:29.462Z,100200.94
2018-12-22T04:15:00.585Z,100200.53
2018-12-22T04:15:31.708Z,100197.13
2018-12-22T04:16:02.839Z,100195.01
2018-12-22T04:16:33.943Z,100199.70
2018-12-22T04:17:05.049Z,100198.64
2018-12-22T04:17:36.207Z,100204.56
2018-12-22T04:18:07.316Z,100204.11
2018-12-22T04:18:38.469Z,100209.25
2018-12-22T04:19:09.601Z,100212.27
2018-12-22T04:19:40.710Z,100212.27
2018-12-22T04:20:11.818Z,100215.72
2018-12-22T04:20:42.926Z,100218.24
2018-12-22T04:21:14.043Z,100222.88
2018-12-22T04:21:45.165Z,100230.95
2018-12-22T04:22:16.436Z,100223.52
2018-12-22T04:22:47.593Z,100225.97
2018-12-22T04:23:18.767Z,100231.28
2018-12-22T04:23:49.877Z,100231.92
2018-12-22T04:24:20.980Z,100230.37
2018-12-22T04:24:52.100Z,100232.41
2018-12-22T04:25:23.210Z,100227.95
2018-12-22T04:25:54.429Z,100230.03
2018-12-22T04:26:25.566Z,100223.61
2018-12-22T04:26:56.726Z,100227.00
2018-12-22T04:27:27.859Z,100224.84
2018-12-22T04:27:58.978Z,100226.36
2018-12-22T04:28:30.120Z,100227.51
2018-12-22T04:29:01.239Z,100228.88
2018-12-22T04:29:34.098Z,100222.97
2018-12-22T04:30:05.607Z,100220.89
2018-12-22T04:30:36.728Z,100228.23
2018-12-22T04:31:07.849Z,100222.30
2018-12-22T04:31:38.967Z,100216.80
2018-12-22T04:32:10.089Z,100217.73
2018-12-22T04:32:41.207Z,100216.87
2018-12-22T04:33:13.155Z,100216.05
2018-12-22T04:33:45.132Z,100211.88
2018-12-22T04:34:16.399Z,100209.77
2018-12-22T04:34:47.518Z,99925.05
2018-12-22T04:35:18.626Z,100210.27
2018-12-22T04:35:49.743Z,100204.30
2018-12-22T04:36:20.853Z,100202.63
2018-12-22T04:36:52.034Z,100206.87
2018-12-22T04:37:23.149Z,100205.56
2018-12-22T04:37:54.248Z,100207.30
2018-12-22T04:38:25.363Z,100210.27
2018-12-22T04:38:56.473Z,100206.87
2018-12-22T04:39:27.612Z,100205.22
2018-12-22T04:39:58.723Z,100200.91
2018-12-22T04:40:29.843Z,100201.84
2018-12-22T04:41:00.965Z,100201.47
2018-12-22T04:41:32.081Z,100195.91
2018-12-22T04:42:03.203Z,100196.37
2018-12-22T04:42:34.316Z,100197.73
2018-12-22T04:43:05.451Z,100191.39
2018-12-22T04:43:36.617Z,100193.20
2018-12-22T04:44:07.725Z,100188.94
2018-12-22T04:44:38.861Z,100190.70
2018-12-22T04:45:10.008Z,100198.88
2018-12-22T04:45:41.782Z,100204.91
2018-12-22T04:46:12.892Z,100204.92
2018-12-22T04:46:44.009Z,100203.66
2018-12-22T04:47:15.133Z,100204.92
2018-12-22T04:47:46.243Z,100207.33
2018-12-22T04:48:17.346Z,100206.44
2018-12-22T04:48:48.492Z,100214.63
2018-12-22T04:49:19.609Z,100208.98
2018-12-22T04:49:50.823Z,100210.27
2018-12-22T04:50:22.022Z,100208.53
2018-12-22T04:50:53.206Z,100214.58
2018-12-22T04:51:24.330Z,100214.09
2018-12-22T04:51:55.444Z,100215.84
2018-12-22T04:52:26.602Z,100214.09
2018-12-22T04:52:57.709Z,100216.69
2018-12-22T04:53:28.831Z,100218.42
2018-12-22T04:54:00.063Z,100219.59
2018-12-22T04:54:31.265Z,100215.03
2018-12-22T04:55:02.418Z,100218.53
2018-12-22T04:55:33.628Z,100210.89
2018-12-22T04:56:04.768Z,100212.63
2018-12-22T04:56:35.876Z,100216.10
2018-12-22T04:57:06.996Z,100220.00
2018-12-22T04:57:38.105Z,100216.15
2018-12-22T04:58:09.209Z,100216.98
2018-12-22T04:58:40.314Z,100217.89
2018-12-22T04:59:11.416Z,100219.25
2018-12-22T04:59:43.203Z,100215.39
2018-12-22T05:00:14.670Z,100214.96
2018-12-22T05:00:45.813Z,100213.25
2018-12-22T05:01:16.926Z,100213.25
2018-12-22T05:01:48.033Z,100217.09
2018-12-22T05:02:19.171Z,100212.02
2018-12-22T05:02:50.289Z,100212.41
2018-12-22T05:03:21.419Z,100209.80
2018-12-22T05:03:52.556Z,100216.25
2018-12-22T05:04:23.659Z,100208.11
2018-12-22T05:04:54.769Z,100207.72
2018-12-22T05:05:25.872Z,100205.20
2018-12-22T05:05:56.996Z,100204.00
2018-12-22T05:06:28.115Z,100204.45
2018-12-22T05:06:59.226Z,100202.72
2018-12-22T05:07:30.384Z,100199.71
2018-12-22T05:08:01.535Z,100200.19
2018-12-22T05:08:32.658Z,100196.84
2018-12-22T05:09:03.794Z,100204.97
2018-12-22T05:09:35.007Z,100205.02
2018-12-22T05:10:06.110Z,100208.01
2018-12-22T05:10:37.345Z,100209.27
2018-12-22T05:11:08.467Z,100205.42
2018-12-22T05:11:39.641Z,100207.14
2018-12-22T05:12:10.755Z,100209.25
2018-12-22T05:12:41.902Z,100209.30
2018-12-22T05:13:13.005Z,100214.84
2018-12-22T05:13:44.117Z,100218.22
2018-12-22T05:14:15.229Z,100221.19
2018-12-22T05:14:46.328Z,100218.59
2018-12-22T05:15:17.448Z,100212.63
2018-12-22T05:15:48.553Z,100211.44
2018-12-22T05:16:19.663Z,100214.48
2018-12-22T05:16:50.772Z,100211.86
2018-12-22T05:17:21.885Z,100208.46
2018-12-22T05:17:53.030Z,100199.09
2018-12-22T05:18:24.138Z,100206.80
2018-12-22T05:18:55.240Z,100203.80
2018-12-22T05:19:26.366Z,100205.52
2018-12-22T05:19:57.464Z,100197.78
2018-12-22T05:20:28.570Z,100203.39
2018-12-22T05:20:59.696Z,100202.11
2018-12-22T05:21:30.815Z,100204.69
2018-12-22T05:22:01.936Z,100192.67
2018-12-22T05:22:33.042Z,100198.27
2018-12-22T05:23:04.207Z,100199.55
2018-12-22T05:23:35.426Z,100198.64
2018-12-22T05:24:06.541Z,100206.72
2018-12-22T05:24:37.643Z,100201.47
2018-12-22T05:25:08.746Z,100206.19
2018-12-22T05:25:39.845Z,100207.77
2018-12-22T05:26:10.981Z,100206.47
2018-12-22T05:26:42.092Z,100212.08
2018-12-22T05:27:13.210Z,100208.23
2018-12-22T05:27:44.359Z,100210.42
2018-12-22T05:28:15.469Z,100204.36
2018-12-22T05:28:46.586Z,100207.85
2018-12-22T05:29:17.744Z,100202.28
2018-12-22T05:29:51.997Z,100205.75
2018-12-22T05:30:21.993Z,100210.06
2018-12-22T05:30:53.149Z,100209.25
2018-12-22T05:31:24.334Z,100206.25
2018-12-22T05:31:55.447Z,100206.69
2018-12-22T05:32:26.545Z,100203.66
2018-12-22T05:32:57.656Z,100203.33
2018-12-22T05:33:28.774Z,100211.91
2018-12-22T05:33:59.876Z,100214.88
2018-12-22T05:34:31.021Z,100211.50
2018-12-22T05:35:02.136Z,100217.08
2018-12-22T05:35:33.253Z,100214.05
2018-12-22T05:36:04.359Z,100222.59
2018-12-22T05:36:35.470Z,100223.06
2018-12-22T05:37:06.665Z,100219.19
2018-12-22T05:37:37.776Z,100220.44
2018-12-22T05:38:08.880Z,100220.91
2018-12-22T05:38:40.085Z,100218.36
2018-12-22T05:39:11.190Z,100214.98
2018-12-22T05:39:42.312Z,100215.83
2018-12-22T05:40:13.413Z,100215.79
2018-12-22T05:40:44.529Z,100216.63
2018-12-22T05:41:15.632Z,100218.70
2018-12-22T05:41:46.731Z,100210.53
2018-12-22T05:42:17.853Z,100214.39
2018-12-22T05:42:49.017Z,100213.11
2018-12-22T05:43:20.132Z,100215.67
2018-12-22T05:43:51.276Z,100214.86
2018-12-22T05:44:22.387Z,100217.79
2018-12-22T05:44:53.531Z,100214.38
2018-12-22T05:45:24.635Z,100212.25
2018-12-22T05:45:55.748Z,100219.08
2018-12-22T05:46:26.871Z,100216.94
2018-12-22T05:46:57.975Z,100218.24
2018-12-22T05:47:29.104Z,100218.24
2018-12-22T05:48:00.215Z,100217.34
2018-12-22T05:48:31.342Z,100215.59
2018-12-22T05:49:02.504Z,100214.75
2018-12-22T05:49:33.603Z,100208.80
2018-12-22T05:50:04.728Z,100213.94
2018-12-22T05:50:35.844Z,100215.24
2018-12-22T05:51:07.021Z,100218.28
2018-12-22T05:51:38.198Z,100217.44
2018-12-22T05:52:09.307Z,100219.57
2018-12-22T05:52:40.412Z,100225.59
2018-12-22T05:53:11.516Z,100223.05
2018-12-22T05:53:42.672Z,100223.87
2018-12-22T05:54:13.781Z,100226.45
2018-12-22T05:54:44.900Z,100226.89
2018-12-22T05:55:16.006Z,100226.47
2018-12-22T05:55:47.123Z,100225.61
2018-12-22T05:56:18.237Z,100228.20